To NAV CANADA Home Page Login to a new session Search on AWWS site Feedback and Comments Disclaimer Vers la page française équivalente Tips FAQ What's new on the site To the Forecasts and Observations / NOTAM section To "File a Flight Plan" website Publications and other links Update of the User's profile FIC Telephone Numbers My Weather Data Folder Route Weather Data Regional Weather Data Local Weather Data To the Forecasts and Observations / NOTAM section
Request Generated 07/03/2015 at 15:34:14 UTC . Weather information available at that time is displayed.

METAR/TAF

GREENWOOD/NS    

METAR CYZX 031500Z 27007KT 15SM SKC 22/09 A2984 RMK WNDY HILL 30010KT SLP105=
METAR CYZX 031400Z 00000KT 15SM SKC 20/13 A2985 RMK WNDY HILL 33003KT SLP108=
METAR CYZX 031300Z 23004KT 15SM FEW130 17/13 A2985 RMK AC2 WNDY HILL 29002KT SLP110=

TAF CYZX 031130Z 0312/0412 24005KT P6SM OVC160
BECMG 0315/0317 27010G20KT FEW040
FM031800 25012G22KT P6SM FEW060
FM040100 24005KT P6SM SKC
RMK NXT FCST BY 031800Z=
Your time UTC time
Weather data provided by Environment Canada and NAV CANADA